createdAt,value
2022-07-30T00:06:18.303Z,24.02
2022-07-30T00:13:19.985Z,23.98
2022-07-30T00:20:21.732Z,23.93
2022-07-30T00:27:24.319Z,23.84
2022-07-30T00:34:26.252Z,23.82
2022-07-30T00:41:27.910Z,23.74
2022-07-30T00:48:29.506Z,23.65
2022-07-30T00:55:31.211Z,23.56
2022-07-30T01:02:32.980Z,23.44
2022-07-30T01:09:34.678Z,23.36
2022-07-30T01:16:38.481Z,23.32
2022-07-30T01:23:43.445Z,23.31
2022-07-30T01:30:45.201Z,23.17
2022-07-30T01:37:46.991Z,23.12
2022-07-30T01:44:48.768Z,23.06
2022-07-30T01:51:50.860Z,23.01
2022-07-30T01:58:52.819Z,22.84
2022-07-30T02:06:04.820Z,22.83
2022-07-30T02:13:06.873Z,22.72
2022-07-30T02:20:10.690Z,22.62
2022-07-30T02:27:18.528Z,22.58
2022-07-30T02:34:21.549Z,22.58
2022-07-30T02:41:24.285Z,22.56
2022-07-30T02:48:34.251Z,22.47
2022-07-30T02:55:38.482Z,22.44
2022-07-30T03:02:42.865Z,22.28
2022-07-30T03:09:50.734Z,22.23
2022-07-30T03:16:56.106Z,22.19
2022-07-30T03:23:57.774Z,22.12
2022-07-30T03:30:59.504Z,22.06
2022-07-30T03:38:01.823Z,22.07
2022-07-30T03:45:05.410Z,22.00
2022-07-30T03:52:08.376Z,22.02
2022-07-30T03:59:10.411Z,21.95
2022-07-30T04:06:14.745Z,21.99
2022-07-30T04:13:16.411Z,22.00
2022-07-30T04:20:23.438Z,22.00
2022-07-30T04:27:28.078Z,22.00
2022-07-30T04:34:29.842Z,22.06
2022-07-30T04:41:33.495Z,22.05
2022-07-30T04:49:09.440Z,22.09
2022-07-30T04:56:11.271Z,22.10
2022-07-30T05:03:13.552Z,22.07
2022-07-30T05:10:18.556Z,22.05
2022-07-30T05:17:20.686Z,22.23
2022-07-30T05:24:22.503Z,22.21
2022-07-30T05:31:31.061Z,22.18
2022-07-30T05:38:36.925Z,22.33
2022-07-30T05:45:53.749Z,22.30
2022-07-30T05:52:56.593Z,22.33
2022-07-30T06:00:21.039Z,22.47
2022-07-30T06:07:29.117Z,22.55
2022-07-30T06:14:32.615Z,22.56
2022-07-30T06:22:02.098Z,22.54
2022-07-30T06:28:58.586Z,22.56
2022-07-30T06:36:06.323Z,22.54
2022-07-30T06:43:19.438Z,22.59
2022-07-30T06:50:41.282Z,22.92
2022-07-30T06:57:43.410Z,23.06
2022-07-30T07:05:05.606Z,23.20
2022-07-30T07:12:07.764Z,23.40
2022-07-30T07:19:09.928Z,23.45
2022-07-30T07:26:16.112Z,23.47
2022-07-30T07:33:18.088Z,23.71
2022-07-30T07:40:21.728Z,23.80
2022-07-30T07:47:26.388Z,24.02
2022-07-30T07:54:42.500Z,24.14
2022-07-30T08:01:46.486Z,24.25
2022-07-30T08:08:51.977Z,24.55
2022-07-30T08:16:25.429Z,24.93
2022-07-30T08:23:55.551Z,25.13
2022-07-30T08:31:00.509Z,25.32
2022-07-30T08:38:04.187Z,25.50
2022-07-30T08:45:06.772Z,25.61
2022-07-30T08:52:10.067Z,25.82
2022-07-30T08:59:17.892Z,25.88
2022-07-30T09:06:19.586Z,26.18
2022-07-30T09:13:28.283Z,26.40
2022-07-30T09:20:35.626Z,26.46
2022-07-30T09:27:47.270Z,26.53
2022-07-30T09:35:14.291Z,26.42
2022-07-30T09:42:34.602Z,26.68
2022-07-30T09:49:42.982Z,26.73
2022-07-30T09:57:23.070Z,26.94
2022-07-30T10:04:32.247Z,26.70
2022-07-30T10:11:44.905Z,27.20
2022-07-30T10:18:47.153Z,27.19
2022-07-30T10:26:08.351Z,27.53
2022-07-30T10:33:37.639Z,28.04
2022-07-30T10:40:50.678Z,28.35
2022-07-30T10:47:52.318Z,28.61
2022-07-30T10:54:53.977Z,28.80
2022-07-30T11:01:58.326Z,28.62
2022-07-30T11:08:59.974Z,28.52
2022-07-30T11:16:04.596Z,28.58
2022-07-30T11:23:18.758Z,28.24
2022-07-30T11:30:20.257Z,28.53
2022-07-30T11:37:32.111Z,29.05
2022-07-30T11:44:34.188Z,29.52
2022-07-30T11:51:42.402Z,30.11
2022-07-30T11:58:44.755Z,30.75
2022-07-30T12:05:53.258Z,31.14
2022-07-30T12:13:13.200Z,31.11
2022-07-30T12:20:19.256Z,31.09
2022-07-30T12:27:21.674Z,31.03
2022-07-30T12:34:24.317Z,31.48
2022-07-30T12:41:48.203Z,31.58
2022-07-30T12:48:49.748Z,31.74
2022-07-30T12:55:51.420Z,32.09
2022-07-30T13:02:53.204Z,32.64
2022-07-30T13:10:11.454Z,32.90
2022-07-30T13:17:13.030Z,33.61
2022-07-30T13:24:18.222Z,33.60
2022-07-30T13:31:21.254Z,33.07
2022-07-30T13:38:23.557Z,33.71
2022-07-30T13:45:25.171Z,33.27
2022-07-30T13:52:26.829Z,32.99
2022-07-30T13:59:28.454Z,33.06
2022-07-30T14:06:30.096Z,33.84
2022-07-30T14:13:31.704Z,33.52
2022-07-30T14:20:33.311Z,33.26
2022-07-30T14:27:35.110Z,33.45
2022-07-30T14:34:36.731Z,33.20
2022-07-30T14:41:38.657Z,33.42
2022-07-30T14:48:40.316Z,33.94
2022-07-30T14:55:41.951Z,34.02
2022-07-30T15:02:43.534Z,33.79
2022-07-30T15:09:45.202Z,33.41
2022-07-30T15:16:46.817Z,33.56
2022-07-30T15:23:48.459Z,33.39
2022-07-30T15:30:50.068Z,33.26
2022-07-30T15:37:51.696Z,33.35
2022-07-30T15:45:15.568Z,33.58
2022-07-30T15:52:15.480Z,33.38
2022-07-30T15:59:17.170Z,33.03
2022-07-30T16:06:18.797Z,33.27
2022-07-30T16:13:20.401Z,32.78
2022-07-30T16:20:22.154Z,32.52
2022-07-30T16:27:25.539Z,32.36
2022-07-30T16:34:27.157Z,32.14
2022-07-30T16:41:28.761Z,32.00
2022-07-30T16:48:32.611Z,31.52
2022-07-30T16:55:34.246Z,31.07
2022-07-30T17:02:35.843Z,30.68
2022-07-30T17:09:37.632Z,30.47
2022-07-30T17:16:39.247Z,30.23
2022-07-30T17:23:40.991Z,30.01
2022-07-30T17:30:42.632Z,29.73
2022-07-30T17:37:44.263Z,29.60
2022-07-30T17:44:45.919Z,29.26
2022-07-30T17:51:47.539Z,29.19
2022-07-30T17:58:51.267Z,28.96
2022-07-30T18:05:53.133Z,28.91
2022-07-30T18:12:54.758Z,28.82
2022-07-30T18:19:56.394Z,28.59
2022-07-30T18:26:59.162Z,28.51
2022-07-30T18:34:01.488Z,28.39
2022-07-30T18:41:03.564Z,28.33
2022-07-30T18:48:05.621Z,28.15
2022-07-30T18:55:08.328Z,28.03
2022-07-30T19:02:09.938Z,27.83
2022-07-30T19:09:16.663Z,27.68
2022-07-30T19:16:20.613Z,27.55
2022-07-30T19:23:22.235Z,27.53
2022-07-30T19:30:23.889Z,27.44
2022-07-30T19:37:25.461Z,27.12
2022-07-30T19:44:27.121Z,27.10
2022-07-30T19:52:11.027Z,27.06
2022-07-30T19:58:52.018Z,26.96
2022-07-30T20:05:57.380Z,26.90
2022-07-30T20:13:01.028Z,26.76
2022-07-30T20:20:09.007Z,26.67
2022-07-30T20:27:35.933Z,26.55
2022-07-30T20:34:32.560Z,26.46
2022-07-30T20:41:34.715Z,26.34
2022-07-30T20:48:36.378Z,26.23
2022-07-30T20:55:39.354Z,26.16
2022-07-30T21:02:43.746Z,25.98
2022-07-30T21:09:49.931Z,25.83
2022-07-30T21:16:56.181Z,25.69
2022-07-30T21:23:58.383Z,25.59
2022-07-30T21:31:01.553Z,25.42
2022-07-30T21:38:03.617Z,25.33
2022-07-30T21:45:05.614Z,25.27
2022-07-30T21:52:08.770Z,25.14
2022-07-30T21:59:10.654Z,25.04
2022-07-30T22:06:13.103Z,24.99
2022-07-30T22:13:18.354Z,24.90
2022-07-30T22:20:23.946Z,24.84
2022-07-30T22:27:28.268Z,24.75
2022-07-30T22:34:42.110Z,24.67
2022-07-30T22:41:46.512Z,24.65
2022-07-30T22:48:48.137Z,24.58
2022-07-30T22:55:50.167Z,24.41
2022-07-30T23:02:51.800Z,24.32
2022-07-30T23:09:53.403Z,24.17
2022-07-30T23:16:57.004Z,24.05
2022-07-30T23:23:58.687Z,23.95
2022-07-30T23:31:00.523Z,23.88
2022-07-30T23:38:02.214Z,23.85
2022-07-30T23:45:04.750Z,23.79
2022-07-30T23:52:06.383Z,23.67
2022-07-30T23:59:08.480Z,23.59
